Terminal Aerodrome Forecast
Issued by NWS Columbia, SC

Home | Current Version | Previous Version | Text Only | Print | Product List | Glossary On
Versions: 1 2 3 4 5 6 7 8 9 10 11 12 13 14 15 16 17 18 19 20 21 22 23 24 25 26 27 28 29 30 31 32 33 34 35 36 37 38 39 40
000
FTUS42 KCAE 280209 AAB
TAFCAE
TAF AMD
KCAE 280209Z 2802/2824 VRB03KT P6SM SCT050 SCT250
      TEMPO 2809/2812 2SM BR
     FM281300 VRB05KT P6SM SCT020
      TEMPO 2813/2815 BKN020
     FM281600 16008KT P6SM BKN040=

USA.gov is the U.S. government's official web portal to all federal, state and local government web resources and services.